sensor_id;sensor_type;location;lat;lon;timestamp;pressure;altitude;pressure_sealevel;temperature
12918;BMP180;6526;54.312;13.092;2023-06-14T00:02:12;102404.00;;;18.70
12918;BMP180;6526;54.312;13.092;2023-06-14T00:04:39;102413.00;;;18.70
12918;BMP180;6526;54.312;13.092;2023-06-14T00:07:07;102422.00;;;18.70
12918;BMP180;6526;54.312;13.092;2023-06-14T00:09:36;102421.00;;;18.70
12918;BMP180;6526;54.312;13.092;2023-06-14T00:12:02;102418.00;;;18.70
12918;BMP180;6526;54.312;13.092;2023-06-14T00:14:28;102415.00;;;18.70
12918;BMP180;6526;54.312;13.092;2023-06-14T00:16:54;102415.00;;;18.70
12918;BMP180;6526;54.312;13.092;2023-06-14T00:19:24;102422.00;;;18.60
12918;BMP180;6526;54.312;13.092;2023-06-14T00:21:51;102414.00;;;18.60
12918;BMP180;6526;54.312;13.092;2023-06-14T00:24:19;102408.00;;;18.60
12918;BMP180;6526;54.312;13.092;2023-06-14T00:26:45;102410.00;;;18.50
12918;BMP180;6526;54.312;13.092;2023-06-14T00:29:11;102416.00;;;18.50
12918;BMP180;6526;54.312;13.092;2023-06-14T00:31:37;102413.00;;;18.50
12918;BMP180;6526;54.312;13.092;2023-06-14T00:34:03;102410.00;;;18.50
12918;BMP180;6526;54.312;13.092;2023-06-14T00:36:29;102408.00;;;18.50
12918;BMP180;6526;54.312;13.092;2023-06-14T00:38:55;102412.00;;;18.40
12918;BMP180;6526;54.312;13.092;2023-06-14T00:41:21;102416.00;;;18.50
12918;BMP180;6526;54.312;13.092;2023-06-14T00:43:47;102414.00;;;18.50
12918;BMP180;6526;54.312;13.092;2023-06-14T00:46:13;102416.00;;;18.60
12918;BMP180;6526;54.312;13.092;2023-06-14T00:48:40;102411.00;;;18.60
12918;BMP180;6526;54.312;13.092;2023-06-14T00:51:06;102415.00;;;18.60
12918;BMP180;6526;54.312;13.092;2023-06-14T00:53:33;102416.00;;;18.60
12918;BMP180;6526;54.312;13.092;2023-06-14T00:56:01;102405.00;;;18.70
12918;BMP180;6526;54.312;13.092;2023-06-14T00:58:28;102413.00;;;18.70
12918;BMP180;6526;54.312;13.092;2023-06-14T01:00:54;102418.00;;;18.60
12918;BMP180;6526;54.312;13.092;2023-06-14T01:03:20;102416.00;;;18.60
12918;BMP180;6526;54.312;13.092;2023-06-14T01:05:49;102423.00;;;18.50
12918;BMP180;6526;54.312;13.092;2023-06-14T01:08:24;102419.00;;;18.50
12918;BMP180;6526;54.312;13.092;2023-06-14T01:11:20;102413.00;;;18.50
12918;BMP180;6526;54.312;13.092;2023-06-14T01:13:48;102413.00;;;18.50
12918;BMP180;6526;54.312;13.092;2023-06-14T01:16:15;102421.00;;;18.50
12918;BMP180;6526;54.312;13.092;2023-06-14T01:18:44;102420.00;;;18.50
12918;BMP180;6526;54.312;13.092;2023-06-14T01:21:24;102407.00;;;18.50
12918;BMP180;6526;54.312;13.092;2023-06-14T01:23:51;102421.00;;;18.50
12918;BMP180;6526;54.312;13.092;2023-06-14T01:26:24;102413.00;;;18.40
12918;BMP180;6526;54.312;13.092;2023-06-14T01:28:52;102415.00;;;18.40
12918;BMP180;6526;54.312;13.092;2023-06-14T01:31:24;102410.00;;;18.40
12918;BMP180;6526;54.312;13.092;2023-06-14T01:33:51;102402.00;;;18.40
12918;BMP180;6526;54.312;13.092;2023-06-14T01:36:19;102412.00;;;18.50
12918;BMP180;6526;54.312;13.092;2023-06-14T01:38:49;102413.00;;;18.40
12918;BMP180;6526;54.312;13.092;2023-06-14T01:41:17;102416.00;;;18.50
12918;BMP180;6526;54.312;13.092;2023-06-14T01:43:45;102413.00;;;18.60
12918;BMP180;6526;54.312;13.092;2023-06-14T01:46:12;102412.00;;;18.60
12918;BMP180;6526;54.312;13.092;2023-06-14T01:48:39;102411.00;;;18.50
12918;BMP180;6526;54.312;13.092;2023-06-14T01:51:05;102404.00;;;18.50
12918;BMP180;6526;54.312;13.092;2023-06-14T01:53:31;102406.00;;;18.50
12918;BMP180;6526;54.312;13.092;2023-06-14T01:55:57;102411.00;;;18.60
12918;BMP180;6526;54.312;13.092;2023-06-14T01:58:23;102410.00;;;18.60
12918;BMP180;6526;54.312;13.092;2023-06-14T02:00:50;102417.00;;;18.50
12918;BMP180;6526;54.312;13.092;2023-06-14T02:03:17;102413.00;;;18.50
12918;BMP180;6526;54.312;13.092;2023-06-14T02:05:45;102413.00;;;18.60
12918;BMP180;6526;54.312;13.092;2023-06-14T02:08:11;102414.00;;;18.50
12918;BMP180;6526;54.312;13.092;2023-06-14T02:10:37;102414.00;;;18.50
12918;BMP180;6526;54.312;13.092;2023-06-14T02:13:03;102415.00;;;18.50
12918;BMP180;6526;54.312;13.092;2023-06-14T02:15:29;102413.00;;;18.50
12918;BMP180;6526;54.312;13.092;2023-06-14T02:18:00;102429.00;;;18.40
12918;BMP180;6526;54.312;13.092;2023-06-14T02:20:26;102419.00;;;18.40
12918;BMP180;6526;54.312;13.092;2023-06-14T02:22:53;102420.00;;;18.40
12918;BMP180;6526;54.312;13.092;2023-06-14T02:25:19;102420.00;;;18.50
12918;BMP180;6526;54.312;13.092;2023-06-14T02:27:45;102424.00;;;18.50
12918;BMP180;6526;54.312;13.092;2023-06-14T02:30:11;102434.00;;;18.50
12918;BMP180;6526;54.312;13.092;2023-06-14T02:32:38;102425.00;;;18.50
12918;BMP180;6526;54.312;13.092;2023-06-14T02:35:04;102430.00;;;18.50
12918;BMP180;6526;54.312;13.092;2023-06-14T02:37:30;102425.00;;;18.40
12918;BMP180;6526;54.312;13.092;2023-06-14T02:39:56;102425.00;;;18.40
12918;BMP180;6526;54.312;13.092;2023-06-14T02:42:23;102437.00;;;18.40
12918;BMP180;6526;54.312;13.092;2023-06-14T02:44:49;102440.00;;;18.40
12918;BMP180;6526;54.312;13.092;2023-06-14T02:47:17;102436.00;;;18.50
12918;BMP180;6526;54.312;13.092;2023-06-14T02:49:44;102450.00;;;18.40
12918;BMP180;6526;54.312;13.092;2023-06-14T02:52:12;102442.00;;;18.40
12918;BMP180;6526;54.312;13.092;2023-06-14T02:54:38;102449.00;;;18.50
12918;BMP180;6526;54.312;13.092;2023-06-14T02:57:04;102440.00;;;18.60
12918;BMP180;6526;54.312;13.092;2023-06-14T02:59:33;102438.00;;;18.50
12918;BMP180;6526;54.312;13.092;2023-06-14T03:01:59;102441.00;;;18.50
12918;BMP180;6526;54.312;13.092;2023-06-14T03:04:25;102438.00;;;18.50
12918;BMP180;6526;54.312;13.092;2023-06-14T03:06:52;102440.00;;;18.50
12918;BMP180;6526;54.312;13.092;2023-06-14T03:09:19;102436.00;;;18.50
12918;BMP180;6526;54.312;13.092;2023-06-14T03:11:46;102442.00;;;18.50
12918;BMP180;6526;54.312;13.092;2023-06-14T03:14:12;102432.00;;;18.50
12918;BMP180;6526;54.312;13.092;2023-06-14T03:16:39;102436.00;;;18.50
12918;BMP180;6526;54.312;13.092;2023-06-14T03:19:07;102444.00;;;18.40
12918;BMP180;6526;54.312;13.092;2023-06-14T03:21:33;102440.00;;;18.40
12918;BMP180;6526;54.312;13.092;2023-06-14T03:24:00;102446.00;;;18.50
12918;BMP180;6526;54.312;13.092;2023-06-14T03:26:28;102437.00;;;18.50
12918;BMP180;6526;54.312;13.092;2023-06-14T03:28:57;102439.00;;;18.50
12918;BMP180;6526;54.312;13.092;2023-06-14T03:31:23;102431.00;;;18.50
12918;BMP180;6526;54.312;13.092;2023-06-14T03:33:49;102442.00;;;18.50
12918;BMP180;6526;54.312;13.092;2023-06-14T03:36:15;102451.00;;;18.50
12918;BMP180;6526;54.312;13.092;2023-06-14T03:38:41;102454.00;;;18.60
12918;BMP180;6526;54.312;13.092;2023-06-14T03:41:07;102457.00;;;18.50
12918;BMP180;6526;54.312;13.092;2023-06-14T03:43:33;102451.00;;;18.50
12918;BMP180;6526;54.312;13.092;2023-06-14T03:46:00;102453.00;;;18.40
12918;BMP180;6526;54.312;13.092;2023-06-14T03:48:26;102458.00;;;18.50
12918;BMP180;6526;54.312;13.092;2023-06-14T03:50:52;102459.00;;;18.50
12918;BMP180;6526;54.312;13.092;2023-06-14T03:53:19;102461.00;;;18.60
12918;BMP180;6526;54.312;13.092;2023-06-14T03:55:49;102465.00;;;18.70
12918;BMP180;6526;54.312;13.092;2023-06-14T03:58:18;102458.00;;;18.80
12918;BMP180;6526;54.312;13.092;2023-06-14T04:00:44;102456.00;;;18.90
12918;BMP180;6526;54.312;13.092;2023-06-14T04:03:11;102468.00;;;19.00
12918;BMP180;6526;54.312;13.092;2023-06-14T04:05:39;102455.00;;;19.00
12918;BMP180;6526;54.312;13.092;2023-06-14T04:08:08;102452.00;;;19.10
12918;BMP180;6526;54.312;13.092;2023-06-14T04:10:35;102447.00;;;19.10
12918;BMP180;6526;54.312;13.092;2023-06-14T04:13:01;102447.00;;;19.20
12918;BMP180;6526;54.312;13.092;2023-06-14T04:15:27;102461.00;;;19.20
12918;BMP180;6526;54.312;13.092;2023-06-14T04:17:54;102455.00;;;19.30
12918;BMP180;6526;54.312;13.092;2023-06-14T04:20:23;102460.00;;;19.40
12918;BMP180;6526;54.312;13.092;2023-06-14T04:22:52;102454.00;;;19.40
12918;BMP180;6526;54.312;13.092;2023-06-14T04:25:18;102455.00;;;19.50
12918;BMP180;6526;54.312;13.092;2023-06-14T04:27:44;102452.00;;;19.60
12918;BMP180;6526;54.312;13.092;2023-06-14T04:30:13;102460.00;;;19.60
12918;BMP180;6526;54.312;13.092;2023-06-14T04:32:39;102461.00;;;19.70
12918;BMP180;6526;54.312;13.092;2023-06-14T04:35:08;102456.00;;;19.50
12918;BMP180;6526;54.312;13.092;2023-06-14T04:37:35;102460.00;;;19.70
12918;BMP180;6526;54.312;13.092;2023-06-14T04:40:06;102472.00;;;19.80
12918;BMP180;6526;54.312;13.092;2023-06-14T04:42:32;102476.00;;;19.70
12918;BMP180;6526;54.312;13.092;2023-06-14T04:44:58;102475.00;;;20.00
12918;BMP180;6526;54.312;13.092;2023-06-14T04:47:24;102478.00;;;20.00
12918;BMP180;6526;54.312;13.092;2023-06-14T04:49:51;102473.00;;;20.10
12918;BMP180;6526;54.312;13.092;2023-06-14T04:52:19;102474.00;;;20.10
12918;BMP180;6526;54.312;13.092;2023-06-14T04:54:47;102476.00;;;20.10
12918;BMP180;6526;54.312;13.092;2023-06-14T04:57:13;102476.00;;;20.20
12918;BMP180;6526;54.312;13.092;2023-06-14T04:59:40;102485.00;;;20.40
12918;BMP180;6526;54.312;13.092;2023-06-14T05:02:06;102485.00;;;20.40
12918;BMP180;6526;54.312;13.092;2023-06-14T05:04:33;102466.00;;;20.40
12918;BMP180;6526;54.312;13.092;2023-06-14T05:06:59;102478.00;;;20.50
12918;BMP180;6526;54.312;13.092;2023-06-14T05:09:26;102481.00;;;20.60
12918;BMP180;6526;54.312;13.092;2023-06-14T05:11:52;102484.00;;;20.70
12918;BMP180;6526;54.312;13.092;2023-06-14T05:14:18;102484.00;;;20.80
12918;BMP180;6526;54.312;13.092;2023-06-14T05:16:44;102485.00;;;20.70
12918;BMP180;6526;54.312;13.092;2023-06-14T05:19:10;102485.00;;;20.90
12918;BMP180;6526;54.312;13.092;2023-06-14T05:21:37;102494.00;;;21.00
12918;BMP180;6526;54.312;13.092;2023-06-14T05:24:03;102486.00;;;21.00
12918;BMP180;6526;54.312;13.092;2023-06-14T05:26:29;102497.00;;;21.20
12918;BMP180;6526;54.312;13.092;2023-06-14T05:28:58;102486.00;;;21.30
12918;BMP180;6526;54.312;13.092;2023-06-14T05:31:26;102498.00;;;21.40
12918;BMP180;6526;54.312;13.092;2023-06-14T05:33:54;102488.00;;;21.50
12918;BMP180;6526;54.312;13.092;2023-06-14T05:36:20;102482.00;;;21.60
12918;BMP180;6526;54.312;13.092;2023-06-14T05:38:50;102488.00;;;21.70
12918;BMP180;6526;54.312;13.092;2023-06-14T05:41:17;102491.00;;;21.80
12918;BMP180;6526;54.312;13.092;2023-06-14T05:43:43;102484.00;;;21.90
12918;BMP180;6526;54.312;13.092;2023-06-14T05:46:09;102484.00;;;22.00
12918;BMP180;6526;54.312;13.092;2023-06-14T05:48:35;102478.00;;;22.10
12918;BMP180;6526;54.312;13.092;2023-06-14T05:51:01;102477.00;;;22.20
12918;BMP180;6526;54.312;13.092;2023-06-14T05:53:27;102477.00;;;22.20
12918;BMP180;6526;54.312;13.092;2023-06-14T05:55:53;102484.00;;;22.40
12918;BMP180;6526;54.312;13.092;2023-06-14T05:58:21;102493.00;;;22.50
12918;BMP180;6526;54.312;13.092;2023-06-14T06:00:47;102495.00;;;22.60
12918;BMP180;6526;54.312;13.092;2023-06-14T06:03:13;102491.00;;;22.80
12918;BMP180;6526;54.312;13.092;2023-06-14T06:05:40;102493.00;;;22.80
12918;BMP180;6526;54.312;13.092;2023-06-14T06:08:06;102496.00;;;23.00
12918;BMP180;6526;54.312;13.092;2023-06-14T06:10:32;102491.00;;;23.20
12918;BMP180;6526;54.312;13.092;2023-06-14T06:12:58;102491.00;;;23.40
12918;BMP180;6526;54.312;13.092;2023-06-14T06:15:24;102489.00;;;23.50
12918;BMP180;6526;54.312;13.092;2023-06-14T06:17:50;102484.00;;;23.50
12918;BMP180;6526;54.312;13.092;2023-06-14T06:20:17;102494.00;;;23.60
12918;BMP180;6526;54.312;13.092;2023-06-14T06:22:43;102495.00;;;23.70
12918;BMP180;6526;54.312;13.092;2023-06-14T06:25:09;102495.00;;;23.80
12918;BMP180;6526;54.312;13.092;2023-06-14T06:27:35;102497.00;;;23.90
12918;BMP180;6526;54.312;13.092;2023-06-14T06:30:06;102502.00;;;24.00
12918;BMP180;6526;54.312;13.092;2023-06-14T06:32:32;102504.00;;;24.10
12918;BMP180;6526;54.312;13.092;2023-06-14T06:34:58;102505.00;;;24.10
12918;BMP180;6526;54.312;13.092;2023-06-14T06:37:25;102511.00;;;24.10
12918;BMP180;6526;54.312;13.092;2023-06-14T06:39:51;102509.00;;;24.20
12918;BMP180;6526;54.312;13.092;2023-06-14T06:42:18;102511.00;;;24.40
12918;BMP180;6526;54.312;13.092;2023-06-14T06:44:44;102514.00;;;24.40
12918;BMP180;6526;54.312;13.092;2023-06-14T06:47:10;102513.00;;;24.60
12918;BMP180;6526;54.312;13.092;2023-06-14T06:49:37;102514.00;;;24.60
12918;BMP180;6526;54.312;13.092;2023-06-14T06:52:04;102522.00;;;24.50
12918;BMP180;6526;54.312;13.092;2023-06-14T06:54:31;102519.00;;;24.50
12918;BMP180;6526;54.312;13.092;2023-06-14T06:56:57;102523.00;;;24.50
12918;BMP180;6526;54.312;13.092;2023-06-14T06:59:24;102522.00;;;24.50
12918;BMP180;6526;54.312;13.092;2023-06-14T07:01:50;102527.00;;;24.60
12918;BMP180;6526;54.312;13.092;2023-06-14T07:04:16;102519.00;;;24.60
12918;BMP180;6526;54.312;13.092;2023-06-14T07:06:43;102520.00;;;24.70
12918;BMP180;6526;54.312;13.092;2023-06-14T07:09:09;102519.00;;;24.80
12918;BMP180;6526;54.312;13.092;2023-06-14T07:11:39;102521.00;;;24.90
12918;BMP180;6526;54.312;13.092;2023-06-14T07:14:06;102528.00;;;25.00
12918;BMP180;6526;54.312;13.092;2023-06-14T07:16:32;102527.00;;;25.10
12918;BMP180;6526;54.312;13.092;2023-06-14T07:18:58;102531.00;;;25.20
12918;BMP180;6526;54.312;13.092;2023-06-14T07:21:24;102530.00;;;25.30
12918;BMP180;6526;54.312;13.092;2023-06-14T07:23:54;102523.00;;;25.40
12918;BMP180;6526;54.312;13.092;2023-06-14T07:26:21;102527.00;;;25.60
12918;BMP180;6526;54.312;13.092;2023-06-14T07:28:47;102532.00;;;25.80
12918;BMP180;6526;54.312;13.092;2023-06-14T07:31:15;102536.00;;;25.90
12918;BMP180;6526;54.312;13.092;2023-06-14T07:33:41;102538.00;;;25.90
12918;BMP180;6526;54.312;13.092;2023-06-14T07:36:08;102539.00;;;26.00
12918;BMP180;6526;54.312;13.092;2023-06-14T07:38:34;102538.00;;;26.10
12918;BMP180;6526;54.312;13.092;2023-06-14T07:41:00;102537.00;;;26.00
12918;BMP180;6526;54.312;13.092;2023-06-14T07:43:26;102537.00;;;26.00
12918;BMP180;6526;54.312;13.092;2023-06-14T07:45:52;102539.00;;;26.00
12918;BMP180;6526;54.312;13.092;2023-06-14T07:48:19;102545.00;;;26.20
12918;BMP180;6526;54.312;13.092;2023-06-14T07:50:45;102543.00;;;26.20
12918;BMP180;6526;54.312;13.092;2023-06-14T07:53:11;102544.00;;;26.20
12918;BMP180;6526;54.312;13.092;2023-06-14T07:55:37;102556.00;;;26.40
12918;BMP180;6526;54.312;13.092;2023-06-14T07:58:05;102550.00;;;26.50
12918;BMP180;6526;54.312;13.092;2023-06-14T08:00:31;102541.00;;;26.40
12918;BMP180;6526;54.312;13.092;2023-06-14T08:02:58;102549.00;;;26.40
12918;BMP180;6526;54.312;13.092;2023-06-14T08:05:25;102547.00;;;26.30
12918;BMP180;6526;54.312;13.092;2023-06-14T08:07:55;102541.00;;;26.20
12918;BMP180;6526;54.312;13.092;2023-06-14T08:10:21;102547.00;;;26.20
12918;BMP180;6526;54.312;13.092;2023-06-14T08:12:48;102548.00;;;26.30
12918;BMP180;6526;54.312;13.092;2023-06-14T08:15:17;102540.00;;;26.20
12918;BMP180;6526;54.312;13.092;2023-06-14T08:17:44;102541.00;;;26.10
12918;BMP180;6526;54.312;13.092;2023-06-14T08:20:11;102540.00;;;26.10
12918;BMP180;6526;54.312;13.092;2023-06-14T08:22:37;102551.00;;;26.00
12918;BMP180;6526;54.312;13.092;2023-06-14T08:25:05;102550.00;;;25.80
12918;BMP180;6526;54.312;13.092;2023-06-14T08:27:32;102546.00;;;25.80
12918;BMP180;6526;54.312;13.092;2023-06-14T08:29:58;102547.00;;;25.80
12918;BMP180;6526;54.312;13.092;2023-06-14T08:32:24;102545.00;;;26.00
12918;BMP180;6526;54.312;13.092;2023-06-14T08:34:51;102547.00;;;26.20
12918;BMP180;6526;54.312;13.092;2023-06-14T08:37:17;102539.00;;;26.30
12918;BMP180;6526;54.312;13.092;2023-06-14T08:39:43;102541.00;;;26.50
12918;BMP180;6526;54.312;13.092;2023-06-14T08:42:10;102531.00;;;26.80
12918;BMP180;6526;54.312;13.092;2023-06-14T08:44:37;102541.00;;;26.90
12918;BMP180;6526;54.312;13.092;2023-06-14T08:47:03;102539.00;;;27.00
12918;BMP180;6526;54.312;13.092;2023-06-14T08:49:32;102540.00;;;27.20
12918;BMP180;6526;54.312;13.092;2023-06-14T08:52:00;102535.00;;;27.30
12918;BMP180;6526;54.312;13.092;2023-06-14T08:54:28;102532.00;;;27.40
12918;BMP180;6526;54.312;13.092;2023-06-14T08:56:56;102537.00;;;27.70
12918;BMP180;6526;54.312;13.092;2023-06-14T08:59:25;102530.00;;;27.70
12918;BMP180;6526;54.312;13.092;2023-06-14T09:01:51;102536.00;;;27.70
12918;BMP180;6526;54.312;13.092;2023-06-14T09:04:18;102540.00;;;27.70
12918;BMP180;6526;54.312;13.092;2023-06-14T09:06:45;102545.00;;;27.70
12918;BMP180;6526;54.312;13.092;2023-06-14T09:09:11;102545.00;;;27.70
12918;BMP180;6526;54.312;13.092;2023-06-14T09:11:38;102535.00;;;27.50
12918;BMP180;6526;54.312;13.092;2023-06-14T09:14:07;102542.00;;;27.50
12918;BMP180;6526;54.312;13.092;2023-06-14T09:16:34;102538.00;;;27.70
12918;BMP180;6526;54.312;13.092;2023-06-14T09:19:00;102534.00;;;27.90
12918;BMP180;6526;54.312;13.092;2023-06-14T09:21:26;102536.00;;;28.00
12918;BMP180;6526;54.312;13.092;2023-06-14T09:23:52;102530.00;;;28.20
12918;BMP180;6526;54.312;13.092;2023-06-14T09:26:20;102533.00;;;28.30
12918;BMP180;6526;54.312;13.092;2023-06-14T09:28:47;102534.00;;;28.60
12918;BMP180;6526;54.312;13.092;2023-06-14T09:31:18;102540.00;;;28.80
12918;BMP180;6526;54.312;13.092;2023-06-14T09:33:46;102540.00;;;28.70
12918;BMP180;6526;54.312;13.092;2023-06-14T09:36:22;102530.00;;;28.80
12918;BMP180;6526;54.312;13.092;2023-06-14T09:39:07;102539.00;;;28.60
12918;BMP180;6526;54.312;13.092;2023-06-14T09:41:39;102539.00;;;28.70
12918;BMP180;6526;54.312;13.092;2023-06-14T09:44:09;102535.00;;;28.80
12918;BMP180;6526;54.312;13.092;2023-06-14T09:46:37;102547.00;;;28.80
12918;BMP180;6526;54.312;13.092;2023-06-14T09:49:04;102549.00;;;28.60
12918;BMP180;6526;54.312;13.092;2023-06-14T09:51:30;102539.00;;;28.60
12918;BMP180;6526;54.312;13.092;2023-06-14T09:54:01;102541.00;;;28.60
12918;BMP180;6526;54.312;13.092;2023-06-14T09:56:33;102538.00;;;28.60
12918;BMP180;6526;54.312;13.092;2023-06-14T09:59:00;102526.00;;;28.70
12918;BMP180;6526;54.312;13.092;2023-06-14T10:01:31;102535.00;;;28.90
12918;BMP180;6526;54.312;13.092;2023-06-14T10:04:07;102529.00;;;28.90
12918;BMP180;6526;54.312;13.092;2023-06-14T10:06:37;102533.00;;;29.00
12918;BMP180;6526;54.312;13.092;2023-06-14T10:09:08;102534.00;;;28.90
12918;BMP180;6526;54.312;13.092;2023-06-14T10:11:35;102543.00;;;28.80
12918;BMP180;6526;54.312;13.092;2023-06-14T10:14:04;102536.00;;;28.80
12918;BMP180;6526;54.312;13.092;2023-06-14T10:19:23;102532.00;;;28.90
12918;BMP180;6526;54.312;13.092;2023-06-14T10:24:35;102541.00;;;29.10
12918;BMP180;6526;54.312;13.092;2023-06-14T10:27:07;102542.00;;;29.20
12918;BMP180;6526;54.312;13.092;2023-06-14T10:32:25;102540.00;;;29.00
12918;BMP180;6526;54.312;13.092;2023-06-14T10:34:59;102529.00;;;29.10
12918;BMP180;6526;54.312;13.092;2023-06-14T10:37:25;102536.00;;;29.20
12918;BMP180;6526;54.312;13.092;2023-06-14T10:39:52;102529.00;;;29.20
12918;BMP180;6526;54.312;13.092;2023-06-14T10:42:19;102529.00;;;29.10
12918;BMP180;6526;54.312;13.092;2023-06-14T10:44:51;102529.00;;;29.10
12918;BMP180;6526;54.312;13.092;2023-06-14T10:47:28;102524.00;;;29.10
12918;BMP180;6526;54.312;13.092;2023-06-14T10:50:15;102516.00;;;28.90
12918;BMP180;6526;54.312;13.092;2023-06-14T10:52:45;102528.00;;;29.00
12918;BMP180;6526;54.312;13.092;2023-06-14T10:55:18;102533.00;;;29.00
12918;BMP180;6526;54.312;13.092;2023-06-14T10:57:45;102524.00;;;29.00
12918;BMP180;6526;54.312;13.092;2023-06-14T11:00:13;102526.00;;;29.00
12918;BMP180;6526;54.312;13.092;2023-06-14T11:03:27;102525.00;;;29.00
12918;BMP180;6526;54.312;13.092;2023-06-14T11:05:58;102524.00;;;29.00
12918;BMP180;6526;54.312;13.092;2023-06-14T11:11:07;102517.00;;;29.20
12918;BMP180;6526;54.312;13.092;2023-06-14T11:13:33;102522.00;;;29.00
12918;BMP180;6526;54.312;13.092;2023-06-14T11:16:00;102527.00;;;28.80
12918;BMP180;6526;54.312;13.092;2023-06-14T11:18:28;102521.00;;;28.80
12918;BMP180;6526;54.312;13.092;2023-06-14T11:20:54;102513.00;;;28.90
12918;BMP180;6526;54.312;13.092;2023-06-14T11:23:21;102516.00;;;28.90
12918;BMP180;6526;54.312;13.092;2023-06-14T11:25:54;102520.00;;;28.80
12918;BMP180;6526;54.312;13.092;2023-06-14T11:28:20;102506.00;;;28.90
12918;BMP180;6526;54.312;13.092;2023-06-14T11:30:48;102513.00;;;29.10
12918;BMP180;6526;54.312;13.092;2023-06-14T11:33:18;102510.00;;;29.20
12918;BMP180;6526;54.312;13.092;2023-06-14T11:35:47;102505.00;;;29.20
12918;BMP180;6526;54.312;13.092;2023-06-14T11:38:13;102499.00;;;29.20
12918;BMP180;6526;54.312;13.092;2023-06-14T11:40:39;102497.00;;;29.10
12918;BMP180;6526;54.312;13.092;2023-06-14T11:43:05;102494.00;;;29.20
12918;BMP180;6526;54.312;13.092;2023-06-14T11:45:32;102498.00;;;29.10
12918;BMP180;6526;54.312;13.092;2023-06-14T11:47:59;102493.00;;;29.30
12918;BMP180;6526;54.312;13.092;2023-06-14T11:50:26;102489.00;;;29.20
12918;BMP180;6526;54.312;13.092;2023-06-14T11:52:59;102496.00;;;29.20
12918;BMP180;6526;54.312;13.092;2023-06-14T11:55:29;102497.00;;;29.10
12918;BMP180;6526;54.312;13.092;2023-06-14T11:57:55;102498.00;;;29.20
12918;BMP180;6526;54.312;13.092;2023-06-14T12:00:25;102495.00;;;29.20
12918;BMP180;6526;54.312;13.092;2023-06-14T12:02:55;102496.00;;;29.30
12918;BMP180;6526;54.312;13.092;2023-06-14T12:05:25;102492.00;;;29.20
12918;BMP180;6526;54.312;13.092;2023-06-14T12:07:58;102485.00;;;29.10
12918;BMP180;6526;54.312;13.092;2023-06-14T12:10:28;102492.00;;;29.00
12918;BMP180;6526;54.312;13.092;2023-06-14T12:12:59;102490.00;;;29.00
12918;BMP180;6526;54.312;13.092;2023-06-14T12:15:28;102481.00;;;29.00
12918;BMP180;6526;54.312;13.092;2023-06-14T12:17:54;102479.00;;;28.80
12918;BMP180;6526;54.312;13.092;2023-06-14T12:20:21;102485.00;;;28.70
12918;BMP180;6526;54.312;13.092;2023-06-14T12:22:54;102476.00;;;28.80
12918;BMP180;6526;54.312;13.092;2023-06-14T12:25:33;102471.00;;;28.70
12918;BMP180;6526;54.312;13.092;2023-06-14T12:28:07;102463.00;;;28.80
12918;BMP180;6526;54.312;13.092;2023-06-14T12:30:35;102480.00;;;28.70
12918;BMP180;6526;54.312;13.092;2023-06-14T12:33:02;102482.00;;;28.70
12918;BMP180;6526;54.312;13.092;2023-06-14T12:35:29;102469.00;;;28.80
12918;BMP180;6526;54.312;13.092;2023-06-14T12:37:55;102475.00;;;28.80
12918;BMP180;6526;54.312;13.092;2023-06-14T12:40:22;102472.00;;;28.70
12918;BMP180;6526;54.312;13.092;2023-06-14T12:42:48;102479.00;;;28.80
12918;BMP180;6526;54.312;13.092;2023-06-14T12:45:14;102465.00;;;28.90
12918;BMP180;6526;54.312;13.092;2023-06-14T12:47:40;102471.00;;;28.90
12918;BMP180;6526;54.312;13.092;2023-06-14T12:50:07;102478.00;;;29.00
12918;BMP180;6526;54.312;13.092;2023-06-14T12:52:33;102474.00;;;28.90
12918;BMP180;6526;54.312;13.092;2023-06-14T12:55:05;102477.00;;;28.90
12918;BMP180;6526;54.312;13.092;2023-06-14T12:57:32;102483.00;;;28.80
12918;BMP180;6526;54.312;13.092;2023-06-14T13:00:00;102481.00;;;28.90
12918;BMP180;6526;54.312;13.092;2023-06-14T13:02:26;102478.00;;;28.90
12918;BMP180;6526;54.312;13.092;2023-06-14T13:04:52;102488.00;;;29.00
12918;BMP180;6526;54.312;13.092;2023-06-14T13:07:18;102473.00;;;29.00
12918;BMP180;6526;54.312;13.092;2023-06-14T13:09:44;102470.00;;;28.90
12918;BMP180;6526;54.312;13.092;2023-06-14T13:12:11;102473.00;;;28.80
12918;BMP180;6526;54.312;13.092;2023-06-14T13:14:38;102477.00;;;28.60
12918;BMP180;6526;54.312;13.092;2023-06-14T13:17:05;102460.00;;;28.50
12918;BMP180;6526;54.312;13.092;2023-06-14T13:19:31;102462.00;;;28.60
12918;BMP180;6526;54.312;13.092;2023-06-14T13:21:57;102433.00;;;28.70
12918;BMP180;6526;54.312;13.092;2023-06-14T13:24:23;102466.00;;;28.60
12918;BMP180;6526;54.312;13.092;2023-06-14T13:26:49;102462.00;;;28.60
12918;BMP180;6526;54.312;13.092;2023-06-14T13:29:15;102455.00;;;28.70
12918;BMP180;6526;54.312;13.092;2023-06-14T13:31:41;102455.00;;;28.70
12918;BMP180;6526;54.312;13.092;2023-06-14T13:34:07;102468.00;;;28.50
12918;BMP180;6526;54.312;13.092;2023-06-14T13:36:33;102456.00;;;28.40
12918;BMP180;6526;54.312;13.092;2023-06-14T13:39:00;102441.00;;;28.30
12918;BMP180;6526;54.312;13.092;2023-06-14T13:41:28;102452.00;;;28.30
12918;BMP180;6526;54.312;13.092;2023-06-14T13:44:00;102448.00;;;28.30
12918;BMP180;6526;54.312;13.092;2023-06-14T13:46:26;102452.00;;;28.30
12918;BMP180;6526;54.312;13.092;2023-06-14T13:48:52;102447.00;;;28.30
12918;BMP180;6526;54.312;13.092;2023-06-14T13:51:19;102457.00;;;28.20
12918;BMP180;6526;54.312;13.092;2023-06-14T13:53:51;102450.00;;;28.10
12918;BMP180;6526;54.312;13.092;2023-06-14T13:56:19;102440.00;;;28.10
12918;BMP180;6526;54.312;13.092;2023-06-14T13:58:45;102448.00;;;28.10
12918;BMP180;6526;54.312;13.092;2023-06-14T14:01:11;102437.00;;;28.10
12918;BMP180;6526;54.312;13.092;2023-06-14T14:03:38;102448.00;;;28.10
12918;BMP180;6526;54.312;13.092;2023-06-14T14:06:04;102444.00;;;28.10
12918;BMP180;6526;54.312;13.092;2023-06-14T14:08:31;102439.00;;;28.10
12918;BMP180;6526;54.312;13.092;2023-06-14T14:10:57;102451.00;;;28.10